Airport View

Enter AWOS ICAO identifier for current METAR.

ex. KFNL

K4O4 251555Z AUTO 08006KT 10SM OVC011 12/09 A3006 RMK AO2

25 Oct 2020 16:20

Frequency: 120.0

Phone: 580-286-2217

Other Area AWOS: KDEQ - KPRX - KHHW - KOSA

TAF AMD KTXK 251327Z 2513/2612 09003KT P6SM OVC005 FM251500 12005KT P6SM OVC025 FM260200 08006KT P6SM OVC012